createdAt,value
2023-04-12T00:00:04.569Z,100214.13
2023-04-12T00:00:27.166Z,100217.00
2023-04-12T00:00:50.726Z,100210.97
2023-04-12T00:01:13.498Z,100211.91
2023-04-12T00:01:35.318Z,100209.22
2023-04-12T00:01:57.076Z,100212.03
2023-04-12T00:02:19.284Z,100209.88
2023-04-12T00:02:44.700Z,100208.84
2023-04-12T00:03:07.752Z,100203.53
2023-04-12T00:03:30.523Z,100204.38
2023-04-12T00:03:54.305Z,100202.66
2023-04-12T00:04:17.655Z,100201.78
2023-04-12T00:04:40.342Z,100200.06
2023-04-12T00:05:03.291Z,100200.91
2023-04-12T00:05:27.034Z,100201.72
2023-04-12T00:05:54.799Z,100190.06
2023-04-12T00:06:17.168Z,100198.88
2023-04-12T00:06:40.256Z,100204.13
2023-04-12T00:07:02.647Z,100193.53
2023-04-12T00:07:24.888Z,100195.16
2023-04-12T00:07:47.499Z,100193.47
2023-04-12T00:08:10.751Z,100199.56
2023-04-12T00:08:33.786Z,100187.25
2023-04-12T00:08:56.145Z,100188.44
2023-04-12T00:09:17.863Z,100193.78
2023-04-12T00:09:40.614Z,100183.19
2023-04-12T00:10:03.202Z,100195.34
2023-04-12T00:10:26.079Z,100197.38
2023-04-12T00:10:47.740Z,100191.97
2023-04-12T00:11:10.376Z,100189.56
2023-04-12T00:11:32.286Z,100186.78
2023-04-12T00:11:55.362Z,100178.72
2023-04-12T00:12:17.854Z,100190.19
2023-04-12T00:12:41.460Z,100184.84
2023-04-12T00:13:03.527Z,100160.09
2023-04-12T00:13:25.258Z,100186.63
2023-04-12T00:13:46.929Z,100181.44
2023-04-12T00:14:08.653Z,100182.25
2023-04-12T00:14:31.349Z,100176.13
2023-04-12T00:14:53.040Z,100180.94
2023-04-12T00:15:15.429Z,100168.59
2023-04-12T00:15:37.228Z,100183.44
2023-04-12T00:16:00.257Z,100175.41
2023-04-12T00:16:22.102Z,100178.03
2023-04-12T00:16:43.908Z,100179.75
2023-04-12T00:17:05.741Z,100164.75
2023-04-12T00:17:28.619Z,100167.84
2023-04-12T00:17:50.327Z,100165.78
2023-04-12T00:18:12.071Z,100156.63
2023-04-12T00:18:33.783Z,100165.63
2023-04-12T00:18:57.230Z,100166.25
2023-04-12T00:19:19.002Z,100166.06
2023-04-12T00:19:41.858Z,100166.91
2023-04-12T00:20:05.983Z,100173.81
2023-04-12T00:21:10.346Z,100160.16
2023-04-12T00:21:32.417Z,100164.56
2023-04-12T00:21:54.299Z,100161.09
2023-04-12T00:22:16.166Z,100165.63
2023-04-12T00:22:38.220Z,100150.59
2023-04-12T00:23:00.815Z,100160.16
2023-04-12T00:23:22.536Z,100160.16
2023-04-12T00:23:44.912Z,100169.09
2023-04-12T00:24:07.337Z,100159.59
2023-04-12T00:24:30.000Z,100154.38
2023-04-12T00:24:51.659Z,100161.28
2023-04-12T00:25:13.347Z,100158.66
2023-04-12T00:25:35.140Z,100154.38
2023-04-12T00:25:56.796Z,100151.84
2023-04-12T00:26:21.655Z,100157.13
2023-04-12T00:26:43.698Z,100157.03
2023-04-12T00:27:06.930Z,100152.97
2023-04-12T00:27:28.627Z,100165.19
2023-04-12T00:27:51.313Z,100150.47
2023-04-12T00:28:13.144Z,100149.66
2023-04-12T00:28:34.805Z,100142.75
2023-04-12T00:28:56.494Z,100144.56
2023-04-12T00:29:18.203Z,100148.94
2023-04-12T00:29:41.147Z,100148.94
2023-04-12T00:30:05.253Z,100152.34
2023-04-12T00:30:27.078Z,100147.78
2023-04-12T00:30:48.824Z,100141.44
2023-04-12T00:31:11.566Z,100135.16
2023-04-12T00:31:33.297Z,100147.78
2023-04-12T00:31:57.840Z,100151.28
2023-04-12T00:32:19.513Z,100145.28
2023-04-12T00:32:42.647Z,100138.22
2023-04-12T00:33:04.863Z,100144.47
2023-04-12T00:33:26.629Z,100146.44
2023-04-12T00:33:48.326Z,100142.28
2023-04-12T00:34:11.385Z,100144.03
2023-04-12T00:34:33.050Z,100134.59
2023-04-12T00:34:54.744Z,100126.66
2023-04-12T00:35:16.454Z,100128.34
2023-04-12T00:35:39.148Z,100136.31
2023-04-12T00:36:01.223Z,100117.03
2023-04-12T00:36:22.961Z,100127.41
2023-04-12T00:36:44.608Z,100131.63
2023-04-12T00:37:07.327Z,100126.13
2023-04-12T00:37:29.367Z,100130.94
2023-04-12T00:37:51.234Z,100123.16
2023-04-12T00:38:13.612Z,100129.44
2023-04-12T00:38:36.536Z,100127.72
2023-04-12T00:38:58.778Z,100120.34
2023-04-12T00:39:20.481Z,100126.47
2023-04-12T00:39:42.142Z,100113.03
2023-04-12T00:40:06.898Z,100127.09
2023-04-12T00:40:28.633Z,100114.53
2023-04-12T00:40:52.271Z,100117.44
2023-04-12T00:41:13.987Z,100118.38
2023-04-12T00:41:37.945Z,100116.56
2023-04-12T00:42:03.859Z,100113.66
2023-04-12T00:42:27.688Z,100109.88
2023-04-12T00:42:49.381Z,100111.63
2023-04-12T00:43:15.403Z,100115.16
2023-04-12T00:43:37.301Z,100111.53
2023-04-12T00:43:59.237Z,100107.78
2023-04-12T00:44:21.252Z,100110.19
2023-04-12T00:44:42.973Z,100103.47
2023-04-12T00:45:07.105Z,100107.94
2023-04-12T00:45:29.158Z,100112.25
2023-04-12T00:45:51.099Z,100107.78
2023-04-12T00:46:12.988Z,100102.63
2023-04-12T00:46:35.880Z,100104.72
2023-04-12T00:46:58.401Z,100103.63
2023-04-12T00:47:20.533Z,100108.09
2023-04-12T00:47:43.282Z,100099.09
2023-04-12T00:48:06.720Z,100102.75
2023-04-12T00:48:28.912Z,100099.41
2023-04-12T00:48:51.746Z,100105.22
2023-04-12T00:49:14.635Z,100098.06
2023-04-12T00:49:39.339Z,100097.03
2023-04-12T00:50:01.453Z,100105.97
2023-04-12T00:50:24.102Z,100090.78
2023-04-12T00:50:46.617Z,100090.72
2023-04-12T00:51:08.647Z,100088.81
2023-04-12T00:51:33.644Z,100095.09
2023-04-12T00:51:55.446Z,100087.31
2023-04-12T00:52:17.989Z,100088.13
2023-04-12T00:52:40.376Z,100090.31
2023-04-12T00:53:04.544Z,100089.28
2023-04-12T00:53:28.092Z,100082.22
2023-04-12T00:53:49.803Z,100084.38
2023-04-12T00:54:14.014Z,100085.38
2023-04-12T00:54:37.494Z,100085.31
2023-04-12T00:54:59.260Z,100086.00
2023-04-12T00:55:21.400Z,100081.84
2023-04-12T00:55:44.353Z,100077.53
2023-04-12T00:56:11.947Z,100083.63
2023-04-12T00:56:34.025Z,100077.13
2023-04-12T00:56:57.240Z,100072.97
2023-04-12T00:57:19.069Z,100086.88
2023-04-12T00:57:43.102Z,100082.41
2023-04-12T00:58:05.721Z,100083.34
2023-04-12T00:58:27.494Z,100080.34
2023-04-12T00:58:49.269Z,100078.63
2023-04-12T00:59:11.933Z,100072.03
2023-04-12T00:59:33.610Z,100077.31
2023-04-12T00:59:55.394Z,100076.00
2023-04-12T01:00:17.787Z,100079.41
2023-04-12T01:00:39.746Z,100070.56
2023-04-12T01:01:02.862Z,100072.28
2023-04-12T01:01:24.671Z,100079.72
2023-04-12T01:01:46.448Z,100080.66
2023-04-12T01:02:08.247Z,100081.69
2023-04-12T01:02:31.229Z,100071.19
2023-04-12T01:02:54.736Z,100075.56
2023-04-12T01:03:17.057Z,100081.53
2023-04-12T01:03:43.344Z,100069.06
2023-04-12T01:04:06.459Z,100068.75
2023-04-12T01:04:28.881Z,100080.19
2023-04-12T01:04:53.343Z,100071.56
2023-04-12T01:05:21.962Z,100070.50
2023-04-12T01:05:54.387Z,100072.97
2023-04-12T01:06:21.980Z,100069.44
2023-04-12T01:07:01.555Z,100065.63
2023-04-12T01:07:37.808Z,100065.31
2023-04-12T01:08:10.666Z,100059.41
2023-04-12T01:08:43.695Z,100064.59
2023-04-12T01:09:16.880Z,100059.41
2023-04-12T01:09:50.131Z,100056.53
2023-04-12T01:10:18.461Z,100060.91
2023-04-12T01:10:47.350Z,100066.84
2023-04-12T01:11:15.439Z,100063.69
2023-04-12T01:11:44.601Z,100065.63
2023-04-12T01:12:21.070Z,100058.47
2023-04-12T01:12:54.437Z,100059.66
2023-04-12T01:13:28.835Z,100054.13
2023-04-12T01:13:58.553Z,100057.84
2023-04-12T01:14:29.820Z,100049.25
2023-04-12T01:14:57.223Z,100044.63
2023-04-12T01:15:19.295Z,100042.66
2023-04-12T01:15:51.483Z,100045.88
2023-04-12T01:16:26.390Z,100038.69
2023-04-12T01:16:51.116Z,100044.00
2023-04-12T01:17:20.845Z,100045.63
2023-04-12T01:17:47.817Z,100045.56
2023-04-12T01:18:17.734Z,100049.72
2023-04-12T01:18:45.874Z,100045.16
2023-04-12T01:19:29.709Z,100043.28
2023-04-12T01:19:57.790Z,100040.75
2023-04-12T01:20:24.346Z,100042.91
2023-04-12T01:20:53.811Z,100037.25
2023-04-12T01:21:20.143Z,100043.22
2023-04-12T01:21:53.991Z,100030.84
2023-04-12T01:22:30.135Z,100033.19
2023-04-12T01:23:14.939Z,100036.94
2023-04-12T01:23:55.055Z,100028.16
2023-04-12T01:24:26.631Z,100035.22
2023-04-12T01:25:02.749Z,100034.66
2023-04-12T01:25:39.172Z,100030.44
2023-04-12T01:26:12.098Z,100036.41
2023-04-12T01:26:42.157Z,100028.47
2023-04-12T01:27:11.156Z,100025.75
2023-04-12T01:27:43.301Z,100019.56
2023-04-12T01:28:07.378Z,100025.59
2023-04-12T01:28:34.630Z,100032.50
2023-04-12T01:28:57.827Z,100032.50
2023-04-12T01:29:21.815Z,100023.47
2023-04-12T01:29:49.827Z,100021.09
2023-04-12T01:30:15.780Z,100028.72
2023-04-12T01:30:39.011Z,100022.59
2023-04-12T01:31:02.141Z,100023.31
2023-04-12T01:31:26.213Z,100022.53
2023-04-12T01:31:53.219Z,100022.34
2023-04-12T01:32:18.872Z,100021.34
2023-04-12T01:32:44.179Z,100011.06
2023-04-12T01:33:07.927Z,100019.63
2023-04-12T01:33:36.811Z,100020.41
2023-04-12T01:34:00.995Z,100023.22
2023-04-12T01:34:24.421Z,100016.09
2023-04-12T01:34:46.830Z,100017.66
2023-04-12T01:35:09.713Z,100013.28
2023-04-12T01:35:34.907Z,100015.78
2023-04-12T01:36:00.580Z,100014.91
2023-04-12T01:36:27.206Z,100020.31
2023-04-12T01:36:50.726Z,100009.88
2023-04-12T01:37:13.159Z,100010.00
2023-04-12T01:37:37.314Z,100004.81
2023-04-12T01:38:00.256Z,100006.84
2023-04-12T01:38:21.982Z,100012.19
2023-04-12T01:38:43.866Z,100005.91
2023-04-12T01:39:08.873Z,100000.91
2023-04-12T01:39:33.630Z,100004.66
2023-04-12T01:39:56.861Z,100000.22
2023-04-12T01:40:20.033Z,100000.28
2023-04-12T01:40:43.247Z,99998.47
2023-04-12T01:41:06.125Z,100007.34
2023-04-12T01:41:27.947Z,99982.66
2023-04-12T01:41:50.508Z,99987.13
2023-04-12T01:42:12.224Z,99995.91
2023-04-12T01:42:36.223Z,99997.66
2023-04-12T01:43:05.217Z,99994.13
2023-04-12T01:43:27.478Z,99989.66
2023-04-12T01:43:50.062Z,99987.00
2023-04-12T01:44:14.649Z,99981.66
2023-04-12T01:44:36.360Z,99984.00
2023-04-12T01:44:58.366Z,99983.31
2023-04-12T01:45:20.285Z,99986.75
2023-04-12T01:45:43.177Z,99988.72
2023-04-12T01:46:05.361Z,99986.66
2023-04-12T01:46:27.173Z,99985.97
2023-04-12T01:46:49.370Z,99986.03
2023-04-12T01:47:12.066Z,99984.44
2023-04-12T01:47:34.472Z,99985.22
2023-04-12T01:47:56.393Z,99982.50
2023-04-12T01:48:18.657Z,99978.91
2023-04-12T01:48:46.807Z,99974.41
2023-04-12T01:49:11.099Z,99978.03
2023-04-12T01:49:43.581Z,99966.25
2023-04-12T01:50:16.378Z,99973.47
2023-04-12T01:50:44.786Z,99965.38
2023-04-12T01:51:10.930Z,99967.19
2023-04-12T01:51:42.753Z,99956.00
2023-04-12T01:52:12.035Z,99957.81
2023-04-12T01:52:38.487Z,99968.63
2023-04-12T01:53:08.890Z,99963.28
2023-04-12T01:53:40.525Z,99961.66
2023-04-12T01:54:11.188Z,99957.63
2023-04-12T01:54:38.793Z,99955.91
2023-04-12T01:55:05.920Z,99959.31
2023-04-12T01:55:30.596Z,99957.34
2023-04-12T01:55:58.578Z,99951.03
2023-04-12T01:56:22.405Z,99946.63
2023-04-12T01:56:48.550Z,99954.97
2023-04-12T01:57:11.401Z,99962.88
2023-04-12T01:57:35.343Z,99948.72
2023-04-12T01:57:59.243Z,99958.09
2023-04-12T01:58:23.653Z,99948.31
2023-04-12T01:58:50.713Z,99952.25
2023-04-12T01:59:14.982Z,99942.31
2023-04-12T01:59:41.819Z,99943.81
2023-04-12T02:00:07.933Z,99945.34
2023-04-12T02:00:36.895Z,99939.97
2023-04-12T02:01:00.286Z,99950.44
2023-04-12T02:01:24.332Z,99938.72
2023-04-12T02:01:47.083Z,99940.75
2023-04-12T02:02:10.442Z,99931.81
2023-04-12T02:02:32.681Z,99936.34
2023-04-12T02:02:57.559Z,99943.69
2023-04-12T02:03:21.875Z,99936.88
2023-04-12T02:03:45.734Z,99937.75
2023-04-12T02:04:09.509Z,99935.53
2023-04-12T02:04:33.322Z,99936.47
2023-04-12T02:04:56.459Z,99933.56
2023-04-12T02:05:18.809Z,99936.94
2023-04-12T02:05:40.938Z,99940.41
2023-04-12T02:06:04.872Z,99941.59
2023-04-12T02:06:28.541Z,99938.09
2023-04-12T02:06:50.352Z,99933.41
2023-04-12T02:07:14.469Z,99925.28
2023-04-12T02:07:37.271Z,99930.53
2023-04-12T02:08:01.001Z,99918.59
2023-04-12T02:08:22.834Z,99935.34
2023-04-12T02:08:44.957Z,99923.19
2023-04-12T02:09:06.660Z,99920.22
2023-04-12T02:09:28.507Z,99927.50
2023-04-12T02:09:51.170Z,99925.47
2023-04-12T02:10:15.514Z,99920.97
2023-04-12T02:10:39.821Z,99914.69
2023-04-12T02:11:07.770Z,99918.78
2023-04-12T02:11:30.769Z,99909.16
2023-04-12T02:11:52.383Z,99910.00
2023-04-12T02:12:14.049Z,99912.28
2023-04-12T02:12:37.023Z,99912.75
2023-04-12T02:13:01.347Z,99911.59
2023-04-12T02:13:23.056Z,99904.38
2023-04-12T02:13:44.755Z,99906.97
2023-04-12T02:14:06.374Z,99904.78
2023-04-12T02:14:31.449Z,99910.00
2023-04-12T02:14:53.219Z,99900.84
2023-04-12T02:15:16.125Z,99901.38
2023-04-12T02:15:38.578Z,99912.63
2023-04-12T02:16:02.845Z,99897.91
2023-04-12T02:16:29.282Z,99898.47
2023-04-12T02:16:54.800Z,99901.44
2023-04-12T02:17:17.658Z,99904.09
2023-04-12T02:17:40.969Z,99891.59
2023-04-12T02:18:03.921Z,99902.94
2023-04-12T02:18:25.628Z,99892.22
2023-04-12T02:18:47.560Z,99897.16
2023-04-12T02:19:10.651Z,99897.84
2023-04-12T02:19:33.376Z,99895.97
2023-04-12T02:19:55.289Z,99894.81
2023-04-12T02:20:18.022Z,99895.44
2023-04-12T02:20:40.826Z,99899.34
2023-04-12T02:21:03.920Z,99891.28
2023-04-12T02:21:26.272Z,99894.94
2023-04-12T02:21:49.857Z,99888.75
2023-04-12T02:22:11.742Z,99891.34
2023-04-12T02:22:34.472Z,99885.34
2023-04-12T02:22:56.220Z,99893.06
2023-04-12T02:23:17.912Z,99888.38
2023-04-12T02:23:39.589Z,99884.94
2023-04-12T02:24:02.418Z,99894.41
2023-04-12T02:24:24.150Z,99892.53
2023-04-12T02:24:46.466Z,99890.63
2023-04-12T02:25:08.477Z,99891.25
2023-04-12T02:25:33.307Z,99893.06
2023-04-12T02:25:55.605Z,99891.25
2023-04-12T02:26:17.519Z,99891.66
2023-04-12T02:26:39.975Z,99885.72
2023-04-12T02:27:05.463Z,99895.56
2023-04-12T02:27:27.356Z,99892.78
2023-04-12T02:27:50.443Z,99892.69
2023-04-12T02:28:12.418Z,99897.06
2023-04-12T02:28:37.931Z,99893.47
2023-04-12T02:29:00.926Z,99897.16
2023-04-12T02:29:23.909Z,99895.44
2023-04-12T02:29:47.038Z,99892.28
2023-04-12T02:30:12.662Z,99882.91
2023-04-12T02:30:34.849Z,99885.53
2023-04-12T02:30:56.985Z,99889.69
2023-04-12T02:31:19.566Z,99887.03
2023-04-12T02:31:44.482Z,99881.59
2023-04-12T02:32:06.975Z,99884.00
2023-04-12T02:32:30.904Z,99875.84
2023-04-12T02:32:53.099Z,99878.34
2023-04-12T02:33:25.383Z,99883.44
2023-04-12T02:33:48.756Z,99877.41
2023-04-12T02:34:10.755Z,99873.25
2023-04-12T02:34:36.782Z,99883.59
2023-04-12T02:35:11.700Z,99884.47
2023-04-12T02:35:33.882Z,99868.69
2023-04-12T02:36:02.617Z,99872.09
2023-04-12T02:36:24.794Z,99878.59
2023-04-12T02:36:48.276Z,99869.03
2023-04-12T02:37:13.641Z,99866.56
2023-04-12T02:37:35.654Z,99861.53
2023-04-12T02:37:57.868Z,99857.78
2023-04-12T02:38:23.856Z,99870.84
2023-04-12T02:38:46.580Z,99864.19
2023-04-12T02:39:09.012Z,99869.03
2023-04-12T02:39:32.198Z,99860.94
2023-04-12T02:39:56.983Z,99874.28
2023-04-12T02:40:20.753Z,99863.59
2023-04-12T02:40:43.719Z,99862.63
2023-04-12T02:41:09.524Z,99858.47
2023-04-12T02:41:31.433Z,99861.22
2023-04-12T02:41:54.169Z,99862.78
2023-04-12T02:42:15.883Z,99861.94
2023-04-12T02:42:39.380Z,99868.88
2023-04-12T02:43:03.735Z,99858.78
2023-04-12T02:43:26.505Z,99861.47
2023-04-12T02:43:54.810Z,99864.38
2023-04-12T02:44:16.750Z,99865.94
2023-04-12T02:44:47.844Z,99857.59
2023-04-12T02:45:10.892Z,99850.13
2023-04-12T02:45:34.609Z,99861.25
2023-04-12T02:45:56.496Z,99855.44
2023-04-12T02:46:22.220Z,99861.84
2023-04-12T02:46:49.298Z,99855.16
2023-04-12T02:47:12.285Z,99848.13
2023-04-12T02:47:36.650Z,99852.75
2023-04-12T02:47:58.712Z,99853.31
2023-04-12T02:48:23.696Z,99850.22
2023-04-12T02:48:47.008Z,99852.50
2023-04-12T02:49:09.088Z,99844.63
2023-04-12T02:49:35.672Z,99844.69
2023-04-12T02:49:58.094Z,99837.78
2023-04-12T02:50:21.054Z,99836.41
2023-04-12T02:50:50.234Z,99832.06
2023-04-12T02:51:15.806Z,99836.72
2023-04-12T02:51:39.126Z,99827.97
2023-04-12T02:52:03.332Z,99828.03
2023-04-12T02:52:34.490Z,99820.00
2023-04-12T02:53:02.796Z,99825.03
2023-04-12T02:53:26.301Z,99818.56
2023-04-12T02:54:09.011Z,99808.38
2023-04-12T02:54:46.023Z,99809.56
2023-04-12T02:55:12.060Z,99810.19
2023-04-12T02:55:33.729Z,99804.88
2023-04-12T02:56:01.140Z,99802.09
2023-04-12T02:56:24.637Z,99799.50
2023-04-12T02:56:55.127Z,99804.94
2023-04-12T02:57:32.914Z,99795.44
2023-04-12T02:57:55.001Z,99795.03
2023-04-12T02:58:19.691Z,99801.97
2023-04-12T02:58:43.920Z,99793.38
2023-04-12T02:59:09.056Z,99796.53
2023-04-12T02:59:53.082Z,99790.66
2023-04-12T03:00:20.110Z,99793.63
2023-04-12T03:00:46.454Z,99799.75
2023-04-12T03:01:13.078Z,99793.34
2023-04-12T03:01:52.817Z,99788.56
2023-04-12T03:02:24.405Z,99781.19
2023-04-12T03:02:51.388Z,99792.84
2023-04-12T03:03:19.344Z,99786.34
2023-04-12T03:03:43.747Z,99787.16
2023-04-12T03:04:27.234Z,99786.22
2023-04-12T03:04:51.894Z,99783.41
2023-04-12T03:05:18.534Z,99778.47
2023-04-12T03:05:40.233Z,99791.88
2023-04-12T03:06:01.959Z,99789.28
2023-04-12T03:06:24.667Z,99785.34
2023-04-12T03:06:53.653Z,99787.34
2023-04-12T03:07:46.083Z,99786.28
2023-04-12T03:08:10.056Z,99781.25
2023-04-12T03:08:36.629Z,99777.09
2023-04-12T03:08:58.538Z,99780.59
2023-04-12T03:09:20.595Z,99773.94
2023-04-12T03:09:42.670Z,99773.59
2023-04-12T03:10:07.500Z,99775.53
2023-04-12T03:10:33.857Z,99770.94
2023-04-12T03:10:58.712Z,99779.59
2023-04-12T03:11:22.654Z,99774.66
2023-04-12T03:11:45.509Z,99772.06
2023-04-12T03:12:07.395Z,99761.16
2023-04-12T03:12:34.787Z,99764.53
2023-04-12T03:13:16.552Z,99768.19
2023-04-12T03:13:43.041Z,99772.34
2023-04-12T03:14:04.838Z,99760.56
2023-04-12T03:14:27.037Z,99759.31
2023-04-12T03:14:49.919Z,99761.09
2023-04-12T03:15:12.674Z,99760.88
2023-04-12T03:15:34.460Z,99765.88
2023-04-12T03:15:59.570Z,99759.66
2023-04-12T03:16:29.973Z,99758.22
2023-04-12T03:17:01.840Z,99756.94
2023-04-12T03:17:23.992Z,99758.59
2023-04-12T03:17:49.036Z,99759.31
2023-04-12T03:18:13.039Z,99752.13
2023-04-12T03:18:43.898Z,99758.72
2023-04-12T03:19:06.709Z,99744.47
2023-04-12T03:19:32.857Z,99752.25
2023-04-12T03:19:55.480Z,99749.47
2023-04-12T03:20:17.813Z,99748.50
2023-04-12T03:20:47.810Z,99745.03
2023-04-12T03:21:12.116Z,99744.34
2023-04-12T03:21:35.486Z,99742.59
2023-04-12T03:21:57.193Z,99752.81
2023-04-12T03:22:19.358Z,99742.84
2023-04-12T03:22:46.825Z,99738.16
2023-04-12T03:23:08.528Z,99745.91
2023-04-12T03:23:33.060Z,99738.88
2023-04-12T03:24:04.950Z,99732.72
2023-04-12T03:24:26.855Z,99736.44
2023-04-12T03:24:49.741Z,99732.22
2023-04-12T03:25:14.582Z,99734.09
2023-04-12T03:25:42.520Z,99734.53
2023-04-12T03:26:31.545Z,99728.03
2023-04-12T03:26:58.080Z,99725.38
2023-04-12T03:27:21.471Z,99725.38
2023-04-12T03:27:44.983Z,99728.53
2023-04-12T03:28:09.875Z,99724.19
2023-04-12T03:28:42.967Z,99716.63
2023-04-12T03:29:06.101Z,99726.97
2023-04-12T03:29:29.584Z,99720.59
2023-04-12T03:29:52.269Z,99729.09
2023-04-12T03:30:16.277Z,99714.94
2023-04-12T03:30:38.762Z,99721.75
2023-04-12T03:31:02.754Z,99716.38
2023-04-12T03:31:33.955Z,99721.47
2023-04-12T03:32:00.158Z,99714.13
2023-04-12T03:32:25.085Z,99706.53
2023-04-12T03:32:47.170Z,99711.91
2023-04-12T03:33:09.436Z,99699.69
2023-04-12T03:33:31.345Z,99705.25
2023-04-12T03:33:58.376Z,99706.19
2023-04-12T03:34:20.796Z,99706.19
2023-04-12T03:34:47.169Z,99703.41
2023-04-12T03:35:12.031Z,99692.38
2023-04-12T03:35:37.285Z,99708.72
2023-04-12T03:35:59.440Z,99712.84
2023-04-12T03:36:23.170Z,99703.16
2023-04-12T03:36:50.949Z,99703.75
2023-04-12T03:37:26.095Z,99695.94
2023-04-12T03:37:52.033Z,99695.56
2023-04-12T03:38:13.804Z,99692.50
2023-04-12T03:38:38.039Z,99697.75
2023-04-12T03:39:02.200Z,99692.25
2023-04-12T03:39:27.469Z,99689.06
2023-04-12T03:39:49.200Z,99700.00
2023-04-12T03:40:16.484Z,99691.50
2023-04-12T03:40:44.839Z,99689.78
2023-04-12T03:41:08.140Z,99684.16
2023-04-12T03:41:32.405Z,99684.41
2023-04-12T03:41:57.120Z,99684.81
2023-04-12T03:42:32.899Z,99687.16
2023-04-12T03:43:01.764Z,99683.41
2023-04-12T03:43:24.433Z,99684.66
2023-04-12T03:43:47.474Z,99680.84
2023-04-12T03:44:14.615Z,99678.00
2023-04-12T03:44:37.434Z,99680.31
2023-04-12T03:45:05.523Z,99672.63
2023-04-12T03:45:27.591Z,99670.22
2023-04-12T03:45:52.818Z,99679.59
2023-04-12T03:46:15.614Z,99668.97
2023-04-12T03:46:38.532Z,99670.78
2023-04-12T03:47:04.299Z,99671.47
2023-04-12T03:47:31.673Z,99665.28
2023-04-12T03:47:53.637Z,99670.53
2023-04-12T03:48:16.759Z,99669.22
2023-04-12T03:48:38.587Z,99666.63
2023-04-12T03:49:00.745Z,99666.47
2023-04-12T03:49:24.271Z,99672.41
2023-04-12T03:49:57.538Z,99666.84
2023-04-12T03:50:29.570Z,99666.56
2023-04-12T03:50:54.601Z,99666.75
2023-04-12T03:51:22.109Z,99663.63
2023-04-12T03:51:44.012Z,99664.72
2023-04-12T03:52:06.495Z,99659.25
2023-04-12T03:52:30.534Z,99660.63
2023-04-12T03:52:52.406Z,99659.81
2023-04-12T03:53:14.339Z,99667.38
2023-04-12T03:53:39.354Z,99662.06
2023-04-12T03:54:04.363Z,99655.13
2023-04-12T03:54:34.944Z,99665.59
2023-04-12T03:55:01.157Z,99658.19
2023-04-12T03:55:23.930Z,99657.63
2023-04-12T03:55:47.658Z,99656.63
2023-04-12T03:56:10.166Z,99653.69
2023-04-12T03:56:32.078Z,99651.78
2023-04-12T03:56:57.705Z,99663.91
2023-04-12T03:57:34.848Z,99657.22
2023-04-12T03:57:57.908Z,99653.06
2023-04-12T03:58:23.845Z,99648.16
2023-04-12T03:58:47.044Z,99649.38
2023-04-12T03:59:10.297Z,99650.91
2023-04-12T03:59:33.459Z,99642.16
2023-04-12T03:59:55.993Z,99640.38
2023-04-12T04:00:21.325Z,99637.41
2023-04-12T04:01:01.628Z,99637.94
2023-04-12T04:01:23.793Z,99634.28
2023-04-12T04:01:47.715Z,99637.88
2023-04-12T04:02:10.663Z,99630.69
2023-04-12T04:02:38.982Z,99626.78
2023-04-12T04:03:05.661Z,99626.88
2023-04-12T04:03:35.397Z,99631.16
2023-04-12T04:04:07.631Z,99634.44
2023-04-12T04:04:30.045Z,99629.75
2023-04-12T04:04:55.457Z,99632.03
2023-04-12T04:05:21.974Z,99627.13
2023-04-12T04:05:45.217Z,99634.59
2023-04-12T04:06:09.292Z,99625.34
2023-04-12T04:06:31.132Z,99622.44
2023-04-12T04:06:57.805Z,99616.88
2023-04-12T04:07:22.197Z,99613.94
2023-04-12T04:07:45.810Z,99623.41
2023-04-12T04:08:08.841Z,99618.03
2023-04-12T04:08:44.682Z,99608.16
2023-04-12T04:09:07.431Z,99611.09
2023-04-12T04:09:33.099Z,99611.41
2023-04-12T04:09:56.108Z,99609.09
2023-04-12T04:10:20.407Z,99611.53
2023-04-12T04:10:42.774Z,99608.63
2023-04-12T04:11:06.663Z,99601.16
2023-04-12T04:11:37.653Z,99604.28
2023-04-12T04:12:01.602Z,99600.69
2023-04-12T04:12:24.202Z,99609.72
2023-04-12T04:12:49.210Z,99610.81
2023-04-12T04:13:11.851Z,99606.47
2023-04-12T04:13:33.625Z,99599.28
2023-04-12T04:14:01.148Z,99600.84
2023-04-12T04:14:22.849Z,99599.97
2023-04-12T04:14:46.688Z,99602.47
2023-04-12T04:15:17.538Z,99590.34
2023-04-12T04:15:39.560Z,99594.09
2023-04-12T04:16:03.814Z,99597.31
2023-04-12T04:16:25.613Z,99603.78
2023-04-12T04:16:49.839Z,99595.88
2023-04-12T04:17:13.387Z,99597.78
2023-04-12T04:17:35.162Z,99600.66
2023-04-12T04:17:56.959Z,99597.56
2023-04-12T04:18:18.639Z,99598.81
2023-04-12T04:18:42.123Z,99604.13
2023-04-12T04:19:06.239Z,99599.56
2023-04-12T04:19:28.222Z,99595.13
2023-04-12T04:19:50.207Z,99598.00
2023-04-12T04:20:13.633Z,99602.63
2023-04-12T04:20:38.848Z,99598.25
2023-04-12T04:21:00.822Z,99595.34
2023-04-12T04:21:24.166Z,99599.78
2023-04-12T04:21:51.033Z,99593.84
2023-04-12T04:22:13.961Z,99592.81
2023-04-12T04:22:36.813Z,99589.09
2023-04-12T04:22:59.559Z,99584.63
2023-04-12T04:23:22.136Z,99591.16
2023-04-12T04:23:45.355Z,99586.41
2023-04-12T04:24:11.184Z,99582.94
2023-04-12T04:24:38.946Z,99585.25
2023-04-12T04:25:02.936Z,99579.84
2023-04-12T04:25:29.950Z,99578.97
2023-04-12T04:25:55.869Z,99579.69
2023-04-12T04:26:19.016Z,99575.06
2023-04-12T04:26:54.272Z,99571.72
2023-04-12T04:27:20.497Z,99581.88
2023-04-12T04:27:44.929Z,99578.34
2023-04-12T04:28:07.690Z,99576.34
2023-04-12T04:28:29.382Z,99576.19
2023-04-12T04:28:51.727Z,99567.41
2023-04-12T04:29:19.420Z,99581.50
2023-04-12T04:29:45.546Z,99574.28
2023-04-12T04:30:10.495Z,99576.56
2023-04-12T04:30:38.825Z,99571.03
2023-04-12T04:31:06.134Z,99571.16
2023-04-12T04:31:34.552Z,99578.19
2023-04-12T04:31:58.823Z,99570.16
2023-04-12T04:32:21.532Z,99562.25
2023-04-12T04:32:46.089Z,99569.47
2023-04-12T04:33:09.005Z,99572.13
2023-04-12T04:33:31.603Z,99570.53
2023-04-12T04:33:56.312Z,99574.38
2023-04-12T04:34:26.418Z,99570.88
2023-04-12T04:34:56.122Z,99576.00
2023-04-12T04:35:18.344Z,99575.38
2023-04-12T04:35:56.469Z,99565.16
2023-04-12T04:36:22.270Z,99572.50
2023-04-12T04:36:48.215Z,99571.88
2023-04-12T04:37:18.866Z,99575.75
2023-04-12T04:37:43.487Z,99568.69
2023-04-12T04:38:05.173Z,99572.69
2023-04-12T04:38:27.041Z,99568.41
2023-04-12T04:38:57.276Z,99566.38
2023-04-12T04:39:35.073Z,99559.53
2023-04-12T04:39:56.988Z,99558.13
2023-04-12T04:40:21.177Z,99555.25
2023-04-12T04:40:43.089Z,99560.25
2023-04-12T04:41:09.069Z,99561.81
2023-04-12T04:41:43.204Z,99552.34
2023-04-12T04:42:15.614Z,99546.19
2023-04-12T04:42:55.146Z,99545.63
2023-04-12T04:43:20.175Z,99548.38
2023-04-12T04:43:42.996Z,99547.44
2023-04-12T04:44:09.547Z,99554.91
2023-04-12T04:44:36.001Z,99546.78
2023-04-12T04:45:04.374Z,99557.16
2023-04-12T04:45:33.618Z,99558.34
2023-04-12T04:45:56.863Z,99557.47
2023-04-12T04:46:21.953Z,99545.94
2023-04-12T04:46:43.651Z,99562.00
2023-04-12T04:47:08.476Z,99551.22
2023-04-12T04:47:31.315Z,99553.59
2023-04-12T04:47:53.658Z,99557.41
2023-04-12T04:48:16.325Z,99562.41
2023-04-12T04:48:38.074Z,99556.00
2023-04-12T04:49:01.086Z,99563.03
2023-04-12T04:49:22.792Z,99548.97
2023-04-12T04:49:44.762Z,99564.72